Time;durP1;ratioP1;P1;durP2;ratioP2;P2;SDS_P1;SDS_P2;PMS_P1;PMS_P2;Temp;Humidity;BMP_temperature;BMP_pressure;BME280_temperature;BME280_humidity;BME280_pressure;Samples;Min_cycle;Max_cycle;Signal;HPM_P1;HPM_P2
2023/03/07 00:01:37;;;;;;;58.95;31.00;;;;;;;;;;5053851;28;20479;-72
2023/03/07 00:04:03;;;;;;;55.60;30.00;;;;;;;;;;5053597;28;20510;-74
2023/03/07 00:06:29;;;;;;;67.35;33.20;;;;;;;;;;5053485;28;20039;-72
2023/03/07 00:08:57;;;;;;;63.58;32.15;;;;;;;;;;5054435;28;20025;-72
2023/03/07 00:11:23;;;;;;;59.95;31.98;;;;;;;;;;5055451;28;20223;-72
2023/03/07 00:13:49;;;;;;;64.13;34.13;;;;;;;;;;5054383;28;20463;-73
2023/03/07 00:16:16;;;;;;;64.07;34.13;;;;;;;;;;5053750;28;20029;-72
2023/03/07 00:18:42;;;;;;;65.28;33.75;;;;;;;;;;5055402;28;20021;-72
2023/03/07 00:21:10;;;;;;;62.75;34.22;;;;;;;;;;5054590;28;20056;-72
2023/03/07 00:23:37;;;;;;;70.07;36.35;;;;;;;;;;5053098;28;20025;-73
2023/03/07 00:26:04;;;;;;;69.50;37.35;;;;;;;;;;5053325;28;20029;-72
2023/03/07 00:28:30;;;;;;;70.20;37.67;;;;;;;;;;5053068;28;20048;-72
2023/03/07 00:31:00;;;;;;;72.07;38.88;;;;;;;;;;5053357;28;20029;-72
2023/03/07 00:33:27;;;;;;;74.00;39.75;;;;;;;;;;5052902;28;20025;-72
2023/03/07 00:36:00;;;;;;;75.22;40.83;;;;;;;;;;5053166;28;20076;-72
2023/03/07 00:38:27;;;;;;;72.93;38.63;;;;;;;;;;5053263;28;20021;-73
2023/03/07 00:40:57;;;;;;;85.18;43.15;;;;;;;;;;5053119;28;20017;-73
2023/03/07 00:43:23;;;;;;;75.88;41.08;;;;;;;;;;5052561;28;20031;-73
2023/03/07 00:45:49;;;;;;;82.05;42.55;;;;;;;;;;5053108;28;20112;-73
2023/03/07 00:48:17;;;;;;;81.32;42.50;;;;;;;;;;5052848;28;20029;-72
2023/03/07 00:50:42;;;;;;;84.72;43.53;;;;;;;;;;5053193;28;20029;-72
2023/03/07 00:53:08;;;;;;;90.20;45.88;;;;;;;;;;5052556;28;20387;-72
2023/03/07 00:55:34;;;;;;;87.97;47.05;;;;;;;;;;5052597;28;20030;-72
2023/03/07 00:58:00;;;;;;;85.72;44.97;;;;;;;;;;5052765;28;20104;-72
2023/03/07 01:00:26;;;;;;;91.32;47.30;;;;;;;;;;5050764;28;20102;-72
2023/03/07 01:02:52;;;;;;;90.43;47.10;;;;;;;;;;5048799;28;20105;-74
2023/03/07 01:05:18;;;;;;;93.40;48.20;;;;;;;;;;5052187;28;20021;-74
2023/03/07 01:07:44;;;;;;;91.90;47.45;;;;;;;;;;5052411;28;20216;-73
2023/03/07 01:10:10;;;;;;;88.47;45.83;;;;;;;;;;5052445;28;20029;-71
2023/03/07 01:12:36;;;;;;;94.80;47.88;;;;;;;;;;5051982;28;20096;-72
2023/03/07 01:15:04;;;;;;;90.70;47.60;;;;;;;;;;5052308;28;20492;-71
2023/03/07 01:17:30;;;;;;;98.53;49.17;;;;;;;;;;5052548;28;20459;-71
2023/03/07 01:19:56;;;;;;;94.03;48.05;;;;;;;;;;5052276;28;20033;-72
2023/03/07 01:22:22;;;;;;;90.20;46.50;;;;;;;;;;5051968;28;20487;-72
2023/03/07 01:24:47;;;;;;;91.07;46.95;;;;;;;;;;5052100;28;20036;-71
2023/03/07 01:27:13;;;;;;;95.53;49.65;;;;;;;;;;5052064;28;20029;-71
2023/03/07 01:29:39;;;;;;;94.15;47.97;;;;;;;;;;5051946;28;20479;-73
2023/03/07 01:32:05;;;;;;;90.50;47.80;;;;;;;;;;5051618;28;20029;-72
2023/03/07 01:34:31;;;;;;;86.57;46.67;;;;;;;;;;5052026;28;20029;-71
2023/03/07 01:36:57;;;;;;;85.00;45.70;;;;;;;;;;5051877;28;20052;-72
2023/03/07 01:39:23;;;;;;;85.50;45.58;;;;;;;;;;5051320;28;20021;-72
2023/03/07 01:41:49;;;;;;;84.80;45.22;;;;;;;;;;5051607;28;20060;-71
2023/03/07 01:44:17;;;;;;;82.70;45.38;;;;;;;;;;5051744;28;20124;-72
2023/03/07 01:46:43;;;;;;;81.47;44.50;;;;;;;;;;5051764;28;20025;-72
2023/03/07 01:49:15;;;;;;;85.82;45.35;;;;;;;;;;5051846;28;20048;-72
2023/03/07 01:51:44;;;;;;;82.38;45.45;;;;;;;;;;5052246;28;20112;-71
2023/03/07 01:54:11;;;;;;;80.35;44.88;;;;;;;;;;5051730;28;20033;-71
2023/03/07 01:56:37;;;;;;;83.47;44.92;;;;;;;;;;5051552;28;20023;-71
2023/03/07 01:59:04;;;;;;;86.70;46.15;;;;;;;;;;5051776;28;20028;-72
2023/03/07 02:01:30;;;;;;;87.57;45.70;;;;;;;;;;5051706;28;20029;-71
2023/03/07 02:03:58;;;;;;;88.53;46.22;;;;;;;;;;5051575;28;20353;-71
2023/03/07 02:06:26;;;;;;;81.05;45.63;;;;;;;;;;5051573;28;20412;-71
2023/03/07 02:08:53;;;;;;;83.93;44.92;;;;;;;;;;5051559;28;20017;-72
2023/03/07 02:11:19;;;;;;;90.75;45.83;;;;;;;;;;5051410;28;20029;-71
2023/03/07 02:13:45;;;;;;;86.00;44.75;;;;;;;;;;5051222;28;20029;-72
2023/03/07 02:16:11;;;;;;;83.55;44.85;;;;;;;;;;5051588;28;20088;-71
2023/03/07 02:18:43;;;;;;;87.35;46.30;;;;;;;;;;5051641;28;20099;-71
2023/03/07 02:21:11;;;;;;;81.25;43.88;;;;;;;;;;5051658;28;20060;-71
2023/03/07 02:23:52;;;;;;;83.55;44.00;;;;;;;;;;5051157;28;20036;-71
2023/03/07 02:26:30;;;;;;;83.72;45.85;;;;;;;;;;5051280;28;20061;-71
2023/03/07 02:28:57;;;;;;;82.70;45.00;;;;;;;;;;5051445;28;20029;-71
2023/03/07 02:31:23;;;;;;;84.47;44.35;;;;;;;;;;5050265;28;20033;-72
2023/03/07 02:33:49;;;;;;;81.75;44.78;;;;;;;;;;5051058;28;20052;-71
2023/03/07 02:36:27;;;;;;;81.85;42.65;;;;;;;;;;5051421;28;20036;-73
2023/03/07 02:38:54;;;;;;;75.40;42.00;;;;;;;;;;5051403;28;20032;-71
2023/03/07 02:41:23;;;;;;;82.25;42.33;;;;;;;;;;5051285;28;20560;-71
2023/03/07 02:43:49;;;;;;;77.15;40.75;;;;;;;;;;5050942;28;20556;-72
2023/03/07 02:46:15;;;;;;;73.18;38.95;;;;;;;;;;5051175;28;20108;-71
2023/03/07 02:48:41;;;;;;;77.78;39.88;;;;;;;;;;5052081;28;20470;-72
2023/03/07 02:51:07;;;;;;;69.93;38.88;;;;;;;;;;5051375;28;20025;-72
2023/03/07 02:53:33;;;;;;;66.57;37.35;;;;;;;;;;5055752;28;20025;-72
2023/03/07 02:55:59;;;;;;;71.43;38.42;;;;;;;;;;5058238;28;20382;-71
2023/03/07 02:58:25;;;;;;;74.72;39.53;;;;;;;;;;5055281;28;20031;-72
2023/03/07 03:00:51;;;;;;;74.55;39.40;;;;;;;;;;5056269;28;20028;-72
2023/03/07 03:03:17;;;;;;;64.32;37.58;;;;;;;;;;5054902;28;20371;-71
2023/03/07 03:05:43;;;;;;;65.97;36.42;;;;;;;;;;5054928;28;20486;-72
2023/03/07 03:08:09;;;;;;;64.78;36.83;;;;;;;;;;5054908;28;20135;-72
2023/03/07 03:10:35;;;;;;;67.05;36.72;;;;;;;;;;5055262;28;20033;-71
2023/03/07 03:13:01;;;;;;;63.55;35.53;;;;;;;;;;5054425;28;20304;-71
2023/03/07 03:15:27;;;;;;;68.03;37.00;;;;;;;;;;5054516;28;20060;-73
2023/03/07 03:17:53;;;;;;;63.67;36.13;;;;;;;;;;5053692;28;20020;-73
2023/03/07 03:20:19;;;;;;;66.38;36.17;;;;;;;;;;5052983;28;20044;-71
2023/03/07 03:22:45;;;;;;;62.85;35.25;;;;;;;;;;5053937;28;20074;-73
2023/03/07 03:25:12;;;;;;;59.15;33.28;;;;;;;;;;5052043;28;20025;-72
2023/03/07 03:27:38;;;;;;;61.80;34.20;;;;;;;;;;5052414;28;20119;-72
2023/03/07 03:30:05;;;;;;;61.80;33.92;;;;;;;;;;5052071;28;20028;-73
2023/03/07 03:32:32;;;;;;;62.95;36.53;;;;;;;;;;5050291;28;20033;-72
2023/03/07 03:34:58;;;;;;;59.20;33.40;;;;;;;;;;5052330;28;20017;-73
2023/03/07 03:37:24;;;;;;;58.03;33.25;;;;;;;;;;5052180;28;20025;-73
2023/03/07 03:39:51;;;;;;;64.97;35.67;;;;;;;;;;5052467;28;20016;-72
2023/03/07 03:42:17;;;;;;;64.30;33.70;;;;;;;;;;5061004;28;20032;-72
2023/03/07 03:44:43;;;;;;;60.92;33.55;;;;;;;;;;5051981;28;20034;-73
2023/03/07 03:47:09;;;;;;;59.50;32.60;;;;;;;;;;5052577;28;20429;-73
2023/03/07 03:49:35;;;;;;;58.92;32.20;;;;;;;;;;5053133;28;20052;-72
2023/03/07 03:52:01;;;;;;;56.13;30.58;;;;;;;;;;5060441;28;20449;-73
2023/03/07 03:54:27;;;;;;;56.33;29.83;;;;;;;;;;5051889;28;20029;-74
2023/03/07 03:56:54;;;;;;;54.20;29.92;;;;;;;;;;5053456;28;20096;-74
2023/03/07 03:59:21;;;;;;;57.05;30.60;;;;;;;;;;5053240;28;20401;-73
2023/03/07 04:01:47;;;;;;;51.03;28.42;;;;;;;;;;5053351;28;20028;-72
2023/03/07 04:04:13;;;;;;;55.25;28.45;;;;;;;;;;5053408;28;20082;-73
2023/03/07 04:06:39;;;;;;;54.65;27.60;;;;;;;;;;5053717;28;20486;-71
2023/03/07 04:09:05;;;;;;;51.90;26.50;;;;;;;;;;5053696;28;20082;-73
2023/03/07 04:11:31;;;;;;;53.33;26.15;;;;;;;;;;5053606;28;20032;-73
2023/03/07 04:13:58;;;;;;;48.15;24.35;;;;;;;;;;5053299;28;20476;-73
2023/03/07 04:16:24;;;;;;;43.40;23.85;;;;;;;;;;5053729;28;20423;-76
2023/03/07 04:18:51;;;;;;;47.97;21.98;;;;;;;;;;5053676;28;20490;-70
2023/03/07 04:21:17;;;;;;;44.75;22.10;;;;;;;;;;5053401;28;20021;-72
2023/03/07 04:23:43;;;;;;;40.30;20.42;;;;;;;;;;5053101;28;20056;-73
2023/03/07 04:26:10;;;;;;;52.55;20.60;;;;;;;;;;5053541;28;20029;-73
2023/03/07 04:28:43;;;;;;;43.22;18.55;;;;;;;;;;5053312;28;20033;-71
2023/03/07 04:31:13;;;;;;;39.37;16.83;;;;;;;;;;5053242;28;20062;-70
2023/03/07 04:33:40;;;;;;;29.90;15.52;;;;;;;;;;5053066;28;20083;-71
2023/03/07 04:36:06;;;;;;;36.72;13.82;;;;;;;;;;5053044;28;20025;-72
2023/03/07 04:38:32;;;;;;;40.03;14.15;;;;;;;;;;5053036;28;20518;-71
2023/03/07 04:40:58;;;;;;;30.15;12.52;;;;;;;;;;5053087;28;20056;-71
2023/03/07 04:43:24;;;;;;;38.00;10.80;;;;;;;;;;5052615;28;20099;-71
2023/03/07 04:45:52;;;;;;;24.67;9.20;;;;;;;;;;5053034;28;20445;-71
2023/03/07 04:48:18;;;;;;;28.60;8.93;;;;;;;;;;5052897;28;20029;-72
2023/03/07 04:50:43;;;;;;;24.75;8.30;;;;;;;;;;5052599;28;20033;-72
2023/03/07 04:53:09;;;;;;;29.10;9.68;;;;;;;;;;5052445;28;20025;-71
2023/03/07 04:55:35;;;;;;;29.63;7.72;;;;;;;;;;5052631;28;20497;-73
2023/03/07 04:58:02;;;;;;;24.25;7.03;;;;;;;;;;5049881;28;20032;-73
2023/03/07 05:00:28;;;;;;;24.60;6.50;;;;;;;;;;5050700;28;20017;-75
2023/03/07 05:02:57;;;;;;;19.42;6.03;;;;;;;;;;5045751;28;20028;-76
2023/03/07 05:05:23;;;;;;;18.63;6.13;;;;;;;;;;5050723;28;20125;-74
2023/03/07 05:07:49;;;;;;;24.08;5.03;;;;;;;;;;5052411;28;20171;-76
2023/03/07 05:10:15;;;;;;;21.10;5.60;;;;;;;;;;5052726;28;20517;-76
2023/03/07 05:12:41;;;;;;;20.90;4.75;;;;;;;;;;5054716;28;20032;-75
2023/03/07 05:15:08;;;;;;;17.95;5.35;;;;;;;;;;5048085;28;20028;-74
2023/03/07 05:17:33;;;;;;;15.57;3.85;;;;;;;;;;5052006;28;20049;-74
2023/03/07 05:19:59;;;;;;;18.40;4.43;;;;;;;;;;5052070;28;20482;-71
2023/03/07 05:22:25;;;;;;;25.92;4.68;;;;;;;;;;5051906;28;20029;-71
2023/03/07 05:24:51;;;;;;;15.82;3.42;;;;;;;;;;5052317;28;20082;-71
2023/03/07 05:27:17;;;;;;;21.10;3.95;;;;;;;;;;5051985;28;20033;-71
2023/03/07 05:29:43;;;;;;;24.48;4.15;;;;;;;;;;5051884;28;20086;-71
2023/03/07 05:32:10;;;;;;;14.70;3.22;;;;;;;;;;5051543;28;20060;-72
2023/03/07 05:34:37;;;;;;;16.80;2.92;;;;;;;;;;5052008;28;20342;-72
2023/03/07 05:37:03;;;;;;;18.02;3.78;;;;;;;;;;5051857;28;20039;-71
2023/03/07 05:39:29;;;;;;;20.33;3.17;;;;;;;;;;5052567;28;20101;-75
2023/03/07 05:41:55;;;;;;;12.10;2.40;;;;;;;;;;5051247;28;20437;-72
2023/03/07 05:44:21;;;;;;;15.27;2.63;;;;;;;;;;5047587;28;20041;-73
2023/03/07 05:46:46;;;;;;;15.48;2.80;;;;;;;;;;5051371;28;20025;-74
2023/03/07 05:49:12;;;;;;;18.30;3.33;;;;;;;;;;5051207;28;20029;-73
2023/03/07 05:51:38;;;;;;;26.15;3.38;;;;;;;;;;5051319;28;20029;-72
2023/03/07 05:54:04;;;;;;;16.50;2.75;;;;;;;;;;5051720;28;20086;-72
2023/03/07 05:56:30;;;;;;;18.30;2.53;;;;;;;;;;5051341;28;20025;-72
2023/03/07 05:58:56;;;;;;;16.17;2.65;;;;;;;;;;5051774;28;20035;-72
2023/03/07 06:01:22;;;;;;;15.60;2.42;;;;;;;;;;5051785;28;20045;-73
2023/03/07 06:03:48;;;;;;;16.25;2.75;;;;;;;;;;5051355;28;20029;-72
2023/03/07 06:06:14;;;;;;;17.45;1.98;;;;;;;;;;5051447;28;20029;-73
2023/03/07 06:08:40;;;;;;;16.70;2.85;;;;;;;;;;5052205;28;20112;-79
2023/03/07 06:11:06;;;;;;;22.33;2.50;;;;;;;;;;5051214;28;20024;-72
2023/03/07 06:13:32;;;;;;;24.02;2.78;;;;;;;;;;5051404;28;20386;-72
2023/03/07 06:15:58;;;;;;;32.05;3.20;;;;;;;;;;5051472;28;20025;-72
2023/03/07 06:18:24;;;;;;;15.82;2.00;;;;;;;;;;5051610;28;20068;-74
2023/03/07 06:20:57;;;;;;;21.85;2.67;;;;;;;;;;5049014;28;20441;-72
2023/03/07 06:23:24;;;;;;;22.58;2.88;;;;;;;;;;5051377;28;20382;-73
2023/03/07 06:25:50;;;;;;;18.80;2.33;;;;;;;;;;5044442;28;20028;-71
2023/03/07 06:28:16;;;;;;;23.00;2.88;;;;;;;;;;5049773;28;20034;-71
2023/03/07 06:30:42;;;;;;;23.85;2.53;;;;;;;;;;5052848;28;20056;-73
2023/03/07 06:33:08;;;;;;;17.80;2.42;;;;;;;;;;5046847;28;20057;-72
2023/03/07 06:35:34;;;;;;;17.63;2.60;;;;;;;;;;5055107;28;20017;-73
2023/03/07 06:38:00;;;;;;;19.45;2.90;;;;;;;;;;5055265;28;20021;-73
2023/03/07 06:40:27;;;;;;;29.13;2.78;;;;;;;;;;5050481;28;20033;-72
2023/03/07 06:42:52;;;;;;;10.18;1.92;;;;;;;;;;5054650;28;20028;-72
2023/03/07 06:45:18;;;;;;;12.10;1.95;;;;;;;;;;5054740;28;20037;-73
2023/03/07 06:47:44;;;;;;;30.98;3.60;;;;;;;;;;5053231;28;20078;-71
2023/03/07 06:50:10;;;;;;;18.10;2.67;;;;;;;;;;5054834;28;20374;-73
2023/03/07 06:52:36;;;;;;;8.88;1.90;;;;;;;;;;5054545;28;20029;-72
2023/03/07 06:55:02;;;;;;;13.27;2.58;;;;;;;;;;5049994;28;20023;-74
2023/03/07 06:57:28;;;;;;;18.33;2.70;;;;;;;;;;5054301;28;20112;-77
2023/03/07 06:59:54;;;;;;;15.43;2.85;;;;;;;;;;5054657;28;20021;-75
2023/03/07 07:02:20;;;;;;;19.88;2.55;;;;;;;;;;5053626;28;20052;-75
2023/03/07 07:04:46;;;;;;;20.58;3.03;;;;;;;;;;5056122;28;20040;-77
2023/03/07 07:07:12;;;;;;;26.10;2.40;;;;;;;;;;5055128;28;20029;-76
2023/03/07 07:09:38;;;;;;;17.38;2.75;;;;;;;;;;5056221;28;20025;-76
2023/03/07 07:12:04;;;;;;;23.65;2.60;;;;;;;;;;5055218;28;20021;-77
2023/03/07 07:14:32;;;;;;;20.45;2.40;;;;;;;;;;5056286;28;20029;-78
2023/03/07 07:16:58;;;;;;;17.95;2.53;;;;;;;;;;5056810;28;20013;-79
2023/03/07 07:19:25;;;;;;;17.95;2.58;;;;;;;;;;5056804;28;20033;-76
2023/03/07 07:21:51;;;;;;;27.02;2.95;;;;;;;;;;5059028;28;20020;-76
2023/03/07 07:24:17;;;;;;;17.85;2.33;;;;;;;;;;5054809;28;20021;-72
2023/03/07 07:26:43;;;;;;;24.52;2.60;;;;;;;;;;5054535;28;20025;-74
2023/03/07 07:29:09;;;;;;;16.92;2.70;;;;;;;;;;5054885;28;20082;-76
2023/03/07 07:31:35;;;;;;;16.67;2.95;;;;;;;;;;5054487;28;20072;-74
2023/03/07 07:34:01;;;;;;;20.98;2.55;;;;;;;;;;5053970;28;20028;-73
2023/03/07 07:36:27;;;;;;;18.67;2.45;;;;;;;;;;5054604;28;20032;-72
2023/03/07 07:38:53;;;;;;;20.40;3.38;;;;;;;;;;5055153;28;20017;-74
2023/03/07 07:41:19;;;;;;;16.75;2.03;;;;;;;;;;5054470;28;20059;-74
2023/03/07 07:43:47;;;;;;;22.48;4.13;;;;;;;;;;5053712;28;20471;-75
2023/03/07 07:46:13;;;;;;;23.48;3.00;;;;;;;;;;5054002;28;20070;-71
2023/03/07 07:48:39;;;;;;;22.35;2.50;;;;;;;;;;5054641;28;20210;-72
2023/03/07 07:51:05;;;;;;;21.95;2.78;;;;;;;;;;5054472;28;20514;-74
2023/03/07 07:53:31;;;;;;;20.83;2.85;;;;;;;;;;5052982;28;20058;-75
2023/03/07 07:55:57;;;;;;;25.27;3.13;;;;;;;;;;5052360;28;20024;-75
2023/03/07 07:58:23;;;;;;;21.02;2.45;;;;;;;;;;5053352;28;20025;-73
2023/03/07 08:00:49;;;;;;;15.80;1.92;;;;;;;;;;5052728;28;20047;-74
2023/03/07 08:03:15;;;;;;;23.58;2.90;;;;;;;;;;5052238;28;20116;-76
2023/03/07 08:05:47;;;;;;;26.25;2.58;;;;;;;;;;5052981;28;20032;-75
2023/03/07 08:08:13;;;;;;;19.75;2.72;;;;;;;;;;5053595;28;20048;-77
2023/03/07 08:10:41;;;;;;;23.42;3.30;;;;;;;;;;5053574;28;20100;-76
2023/03/07 08:13:08;;;;;;;20.70;3.35;;;;;;;;;;5052679;28;20099;-77
2023/03/07 08:15:34;;;;;;;20.67;2.72;;;;;;;;;;5053161;28;20076;-76
2023/03/07 08:18:00;;;;;;;22.63;2.95;;;;;;;;;;5052988;28;20055;-74
2023/03/07 08:20:26;;;;;;;20.42;2.30;;;;;;;;;;5052940;28;20521;-75
2023/03/07 08:22:52;;;;;;;24.52;3.03;;;;;;;;;;5034235;28;20028;-74
2023/03/07 08:25:20;;;;;;;22.27;2.53;;;;;;;;;;5044819;28;20029;-74
2023/03/07 08:27:47;;;;;;;24.92;3.33;;;;;;;;;;5051883;28;20029;-73
2023/03/07 08:30:14;;;;;;;26.65;3.85;;;;;;;;;;5048223;28;20541;-73
2023/03/07 08:32:40;;;;;;;22.15;2.80;;;;;;;;;;5051525;28;20064;-73
2023/03/07 08:35:06;;;;;;;28.92;3.13;;;;;;;;;;5048225;28;20025;-72
2023/03/07 08:37:33;;;;;;;17.73;3.20;;;;;;;;;;5052110;28;20053;-73
2023/03/07 08:39:59;;;;;;;33.92;4.30;;;;;;;;;;5048938;28;20487;-72
2023/03/07 08:42:25;;;;;;;23.80;3.00;;;;;;;;;;5050447;28;20063;-72
2023/03/07 08:44:51;;;;;;;17.60;2.60;;;;;;;;;;5067463;28;20017;-72
2023/03/07 08:47:17;;;;;;;27.58;3.05;;;;;;;;;;5074388;28;20028;-71
2023/03/07 08:49:43;;;;;;;38.35;3.30;;;;;;;;;;5072387;28;20014;-72
2023/03/07 08:52:10;;;;;;;30.85;3.47;;;;;;;;;;5068943;28;20509;-73
2023/03/07 08:54:36;;;;;;;29.17;2.90;;;;;;;;;;5050162;28;20036;-74
2023/03/07 08:57:02;;;;;;;25.20;4.03;;;;;;;;;;5052340;28;20645;-73
2023/03/07 08:59:28;;;;;;;39.97;8.23;;;;;;;;;;5048299;28;20029;-74
2023/03/07 09:01:55;;;;;;;26.27;3.33;;;;;;;;;;5050026;28;20042;-73
2023/03/07 09:04:21;;;;;;;33.30;5.50;;;;;;;;;;5050211;28;20075;-74
2023/03/07 09:06:47;;;;;;;72.47;17.05;;;;;;;;;;5046545;28;20037;-74
2023/03/07 09:09:13;;;;;;;33.53;5.32;;;;;;;;;;5046028;28;20036;-75
2023/03/07 09:11:39;;;;;;;58.92;14.48;;;;;;;;;;5052193;28;20033;-72
2023/03/07 09:14:05;;;;;;;35.03;4.95;;;;;;;;;;5044169;28;20433;-73
2023/03/07 09:16:31;;;;;;;27.80;5.20;;;;;;;;;;5044583;28;20033;-73
2023/03/07 09:18:57;;;;;;;29.52;4.30;;;;;;;;;;5041749;28;20021;-73
2023/03/07 09:21:23;;;;;;;105.50;25.48;;;;;;;;;;5048658;28;20029;-74
2023/03/07 09:23:49;;;;;;;28.10;4.65;;;;;;;;;;5044558;28;20116;-74
2023/03/07 09:26:15;;;;;;;101.28;24.75;;;;;;;;;;5044881;28;20118;-72
2023/03/07 09:28:41;;;;;;;43.67;12.15;;;;;;;;;;5044173;28;20033;-74
2023/03/07 09:31:08;;;;;;;36.30;9.85;;;;;;;;;;5045897;28;20413;-74
2023/03/07 09:33:34;;;;;;;24.45;4.78;;;;;;;;;;5051919;28;20017;-74
2023/03/07 09:36:03;;;;;;;24.02;3.97;;;;;;;;;;5052032;28;20063;-73
2023/03/07 09:38:29;;;;;;;22.27;3.58;;;;;;;;;;5052170;28;20115;-73
2023/03/07 09:40:56;;;;;;;18.35;3.55;;;;;;;;;;5052216;28;20083;-77
2023/03/07 09:43:25;;;;;;;22.35;3.53;;;;;;;;;;5051723;28;20037;-75
2023/03/07 09:46:10;;;;;;;24.48;3.30;;;;;;;;;;5052068;28;20056;-75
2023/03/07 09:48:48;;;;;;;22.20;3.42;;;;;;;;;;5052233;28;20025;-75
2023/03/07 09:51:20;;;;;;;16.80;2.83;;;;;;;;;;5052227;28;20521;-76
2023/03/07 09:53:52;;;;;;;21.02;2.70;;;;;;;;;;5052096;28;20044;-77
2023/03/07 09:56:29;;;;;;;25.25;3.17;;;;;;;;;;5052272;28;20025;-75
2023/03/07 09:59:00;;;;;;;23.02;3.42;;;;;;;;;;5052626;28;20033;-76
2023/03/07 10:01:28;;;;;;;20.48;2.33;;;;;;;;;;5051776;28;20056;-75
2023/03/07 10:04:03;;;;;;;14.55;2.38;;;;;;;;;;5051960;28;20100;-77
2023/03/07 10:06:39;;;;;;;23.52;3.15;;;;;;;;;;5051898;28;20021;-75
2023/03/07 10:09:07;;;;;;;22.25;2.80;;;;;;;;;;5051957;28;20035;-74
2023/03/07 10:11:39;;;;;;;17.40;2.40;;;;;;;;;;5051694;28;20032;-75
2023/03/07 10:14:05;;;;;;;19.15;2.92;;;;;;;;;;5051303;28;20537;-75
2023/03/07 10:16:40;;;;;;;14.85;2.38;;;;;;;;;;5051166;28;20078;-71
2023/03/07 10:19:09;;;;;;;19.88;2.22;;;;;;;;;;5051119;28;20033;-72
2023/03/07 10:21:39;;;;;;;11.55;2.28;;;;;;;;;;5051534;28;20598;-75
2023/03/07 10:24:17;;;;;;;11.35;2.55;;;;;;;;;;5051481;28;20040;-76
2023/03/07 10:26:56;;;;;;;25.45;2.97;;;;;;;;;;5051737;28;20024;-79
2023/03/07 10:29:24;;;;;;;22.27;4.35;;;;;;;;;;5049664;28;20051;-74
2023/03/07 10:32:03;;;;;;;19.27;3.92;;;;;;;;;;5050557;28;20494;-76
2023/03/07 10:34:30;;;;;;;14.63;2.40;;;;;;;;;;5051500;28;20483;-75
2023/03/07 10:37:14;;;;;;;16.38;2.17;;;;;;;;;;5051421;28;20371;-75
2023/03/07 10:39:42;;;;;;;11.25;2.20;;;;;;;;;;5050968;28;20548;-75
2023/03/07 10:42:12;;;;;;;17.00;2.67;;;;;;;;;;5050900;28;20040;-72
2023/03/07 10:44:38;;;;;;;15.88;3.08;;;;;;;;;;5050795;28;20037;-73
2023/03/07 10:47:04;;;;;;;21.15;2.42;;;;;;;;;;5051273;28;20382;-74
2023/03/07 10:49:43;;;;;;;16.00;2.13;;;;;;;;;;5051965;28;20646;-73
2023/03/07 10:52:18;;;;;;;10.23;2.35;;;;;;;;;;5050783;28;20021;-74
2023/03/07 10:54:44;;;;;;;16.90;2.80;;;;;;;;;;5051320;28;20442;-72
2023/03/07 10:57:11;;;;;;;19.10;2.90;;;;;;;;;;5051102;28;20025;-73
2023/03/07 10:59:38;;;;;;;14.43;2.80;;;;;;;;;;5050928;28;20021;-73
2023/03/07 11:02:24;;;;;;;22.20;2.55;;;;;;;;;;5051152;28;20756;-74
2023/03/07 11:04:51;;;;;;;17.67;2.95;;;;;;;;;;5051046;28;20115;-74
2023/03/07 11:07:26;;;;;;;20.10;2.53;;;;;;;;;;5051194;28;20025;-75
2023/03/07 11:09:52;;;;;;;18.52;3.78;;;;;;;;;;5051011;28;20029;-75
2023/03/07 11:12:19;;;;;;;22.67;3.25;;;;;;;;;;5052811;28;20029;-74
2023/03/07 11:14:45;;;;;;;20.00;2.95;;;;;;;;;;5055465;28;20104;-74
2023/03/07 11:17:18;;;;;;;18.35;2.28;;;;;;;;;;5054646;28;20064;-73
2023/03/07 11:19:45;;;;;;;15.88;2.47;;;;;;;;;;5054982;28;20483;-74
2023/03/07 11:22:19;;;;;;;13.82;2.50;;;;;;;;;;5054624;28;20033;-74
2023/03/07 11:25:08;;;;;;;16.85;2.75;;;;;;;;;;5054312;28;20039;-74
2023/03/07 11:27:38;;;;;;;13.55;2.55;;;;;;;;;;5054421;28;20124;-74
2023/03/07 11:30:05;;;;;;;15.88;2.92;;;;;;;;;;5054449;28;20029;-75
2023/03/07 11:32:32;;;;;;;8.88;1.83;;;;;;;;;;5054044;28;20025;-75
2023/03/07 11:35:14;;;;;;;13.32;2.22;;;;;;;;;;5054191;28;20025;-73
2023/03/07 11:37:56;;;;;;;20.45;3.15;;;;;;;;;;5054776;28;20100;-73
2023/03/07 11:40:22;;;;;;;17.15;3.70;;;;;;;;;;5054482;28;20032;-73
2023/03/07 11:42:49;;;;;;;19.38;3.47;;;;;;;;;;5053984;28;20047;-73
2023/03/07 11:45:30;;;;;;;16.40;2.80;;;;;;;;;;5053848;28;20275;-74
2023/03/07 11:47:56;;;;;;;16.60;2.25;;;;;;;;;;5052814;28;20017;-74
2023/03/07 11:50:23;;;;;;;17.00;2.80;;;;;;;;;;5045634;28;20096;-73
2023/03/07 11:52:55;;;;;;;13.38;2.90;;;;;;;;;;5042324;28;20028;-75
2023/03/07 11:55:30;;;;;;;16.67;2.97;;;;;;;;;;5044835;28;20028;-74
2023/03/07 11:58:15;;;;;;;14.60;2.30;;;;;;;;;;5052201;28;20028;-73
2023/03/07 12:00:59;;;;;;;10.77;2.42;;;;;;;;;;5046043;28;20029;-74
2023/03/07 12:03:52;;;;;;;12.73;2.50;;;;;;;;;;5044980;28;20031;-73
2023/03/07 12:06:37;;;;;;;12.13;2.20;;;;;;;;;;5043406;28;20290;-72
2023/03/07 12:09:03;;;;;;;14.90;3.47;;;;;;;;;;5045647;28;20048;-74
2023/03/07 12:11:48;;;;;;;15.65;2.75;;;;;;;;;;5051882;28;20033;-73
2023/03/07 12:14:30;;;;;;;11.93;2.30;;;;;;;;;;5054899;28;20025;-74
2023/03/07 12:16:56;;;;;;;18.10;2.97;;;;;;;;;;5046891;28;20021;-73
2023/03/07 12:19:41;;;;;;;15.45;2.83;;;;;;;;;;5053601;28;20539;-73
2023/03/07 12:22:21;;;;;;;15.05;3.42;;;;;;;;;;5049207;28;20047;-74
2023/03/07 12:25:06;;;;;;;18.90;3.17;;;;;;;;;;5045901;28;20052;-74
2023/03/07 12:27:32;;;;;;;13.82;2.55;;;;;;;;;;5045950;28;20021;-74
2023/03/07 12:30:04;;;;;;;14.13;2.67;;;;;;;;;;5051963;28;20123;-74
2023/03/07 12:32:31;;;;;;;13.73;2.40;;;;;;;;;;5038782;28;20053;-74
2023/03/07 12:35:03;;;;;;;12.65;1.83;;;;;;;;;;5047494;28;20078;-73
2023/03/07 12:37:33;;;;;;;10.77;2.05;;;;;;;;;;5049745;28;20671;-74
2023/03/07 12:40:04;;;;;;;6.90;1.60;;;;;;;;;;5052279;28;20059;-74
2023/03/07 12:42:43;;;;;;;16.80;3.67;;;;;;;;;;5037971;28;20037;-75
2023/03/07 12:45:10;;;;;;;14.27;4.10;;;;;;;;;;5047158;28;20053;-74
2023/03/07 12:47:55;;;;;;;15.05;2.05;;;;;;;;;;5047736;28;20025;-74
2023/03/07 12:50:42;;;;;;;20.77;2.58;;;;;;;;;;5046966;28;20021;-74
2023/03/07 12:53:26;;;;;;;14.80;2.70;;;;;;;;;;5040732;28;20552;-73
2023/03/07 12:56:00;;;;;;;12.53;2.30;;;;;;;;;;5040688;28;20056;-73
2023/03/07 12:58:26;;;;;;;12.55;2.13;;;;;;;;;;5047800;28;20921;-72
2023/03/07 13:01:02;;;;;;;16.48;2.30;;;;;;;;;;5048156;28;20067;-76
2023/03/07 13:03:47;;;;;;;18.85;2.40;;;;;;;;;;5045901;28;20025;-72
2023/03/07 13:06:16;;;;;;;15.85;2.40;;;;;;;;;;5048059;28;20025;-73
2023/03/07 13:08:45;;;;;;;13.25;2.38;;;;;;;;;;5051538;28;20399;-73
2023/03/07 13:11:21;;;;;;;16.65;2.08;;;;;;;;;;5047578;28;20028;-72
2023/03/07 13:13:50;;;;;;;9.27;1.83;;;;;;;;;;5056485;28;20486;-72
2023/03/07 13:16:45;;;;;;;15.93;1.80;;;;;;;;;;5044609;28;20088;-72
2023/03/07 13:19:30;;;;;;;19.17;2.15;;;;;;;;;;5038203;28;20084;-74
2023/03/07 13:21:57;;;;;;;13.05;2.42;;;;;;;;;;5044568;28;20117;-75
2023/03/07 13:24:35;;;;;;;9.32;1.67;;;;;;;;;;5052091;28;20518;-73
2023/03/07 13:27:12;;;;;;;12.70;1.60;;;;;;;;;;5042053;28;20032;-72
2023/03/07 13:29:57;;;;;;;18.95;2.40;;;;;;;;;;5049884;28;20029;-73
2023/03/07 13:32:42;;;;;;;7.38;1.77;;;;;;;;;;5051246;28;20385;-73
2023/03/07 13:35:09;;;;;;;15.68;2.15;;;;;;;;;;5042263;28;20025;-73
2023/03/07 13:37:47;;;;;;;11.77;1.65;;;;;;;;;;5051506;28;20029;-73
2023/03/07 13:40:21;;;;;;;13.02;2.13;;;;;;;;;;5041863;28;20387;-73
2023/03/07 13:42:48;;;;;;;13.98;1.95;;;;;;;;;;5047229;28;20102;-73
2023/03/07 13:45:32;;;;;;;16.35;2.47;;;;;;;;;;5045011;28;20440;-72
2023/03/07 13:47:58;;;;;;;12.23;1.83;;;;;;;;;;5046027;28;20036;-72
2023/03/07 13:50:33;;;;;;;19.40;2.10;;;;;;;;;;5036589;28;20497;-74
2023/03/07 13:53:01;;;;;;;6.55;1.80;;;;;;;;;;5050557;28;20151;-72
2023/03/07 13:55:28;;;;;;;10.98;1.70;;;;;;;;;;5048312;28;20098;-71
2023/03/07 13:57:56;;;;;;;12.43;2.03;;;;;;;;;;5050830;28;20021;-73
2023/03/07 14:00:23;;;;;;;9.60;1.65;;;;;;;;;;5046054;28;20028;-74
2023/03/07 14:02:51;;;;;;;6.38;1.58;;;;;;;;;;5054317;28;20029;-72
2023/03/07 14:05:17;;;;;;;8.02;1.58;;;;;;;;;;5047278;28;20036;-72
2023/03/07 14:07:43;;;;;;;12.85;2.53;;;;;;;;;;5051486;28;20101;-71
2023/03/07 14:10:15;;;;;;;9.98;2.10;;;;;;;;;;5051734;28;20092;-73
2023/03/07 14:12:43;;;;;;;11.95;1.73;;;;;;;;;;5050125;28;20040;-73
2023/03/07 14:15:09;;;;;;;15.65;1.88;;;;;;;;;;5049182;28;20196;-73
2023/03/07 14:17:46;;;;;;;14.43;2.05;;;;;;;;;;5051860;28;20056;-72
2023/03/07 14:20:16;;;;;;;9.05;1.90;;;;;;;;;;5052195;28;20040;-72
2023/03/07 14:22:42;;;;;;;13.43;1.42;;;;;;;;;;5053210;28;20112;-71
2023/03/07 14:25:15;;;;;;;13.45;1.90;;;;;;;;;;5053521;28;20103;-72
2023/03/07 14:28:02;;;;;;;12.80;1.60;;;;;;;;;;5055299;28;20546;-72
2023/03/07 14:30:29;;;;;;;8.50;1.73;;;;;;;;;;5053425;28;20037;-73
2023/03/07 14:32:55;;;;;;;10.65;1.85;;;;;;;;;;5051890;28;20029;-72
2023/03/07 14:35:34;;;;;;;16.98;3.70;;;;;;;;;;5051953;28;20021;-72